createdAt,value
2022-10-15T00:03:49.040Z,11.23
2022-10-15T00:08:53.173Z,13.50
2022-10-15T00:13:58.771Z,12.77
2022-10-15T00:19:01.665Z,12.70
2022-10-15T00:24:06.506Z,14.20
2022-10-15T00:29:09.337Z,11.73
2022-10-15T00:34:12.193Z,14.80
2022-10-15T00:39:16.338Z,15.88
2022-10-15T00:44:58.794Z,14.90
2022-10-15T00:50:06.717Z,17.33
2022-10-15T00:55:15.053Z,16.63
2022-10-15T01:00:19.390Z,16.85
2022-10-15T01:05:22.920Z,14.77
2022-10-15T01:10:33.881Z,17.08
2022-10-15T01:15:44.449Z,15.13
2022-10-15T01:21:11.044Z,13.93
2022-10-15T01:26:47.511Z,16.20
2022-10-15T01:32:02.363Z,15.98
2022-10-15T01:37:15.301Z,18.00
2022-10-15T01:42:26.868Z,17.52
2022-10-15T01:47:37.489Z,13.43
2022-10-15T01:52:42.832Z,15.95
2022-10-15T01:57:47.100Z,16.05
2022-10-15T02:02:51.198Z,15.35
2022-10-15T02:07:59.903Z,19.30
2022-10-15T02:13:10.984Z,14.65
2022-10-15T02:18:22.453Z,14.52
2022-10-15T02:23:29.648Z,14.32
2022-10-15T02:28:35.578Z,17.23
2022-10-15T02:33:40.206Z,14.55
2022-10-15T02:38:46.000Z,14.15
2022-10-15T02:43:49.362Z,15.75
2022-10-15T02:48:53.427Z,15.60
2022-10-15T02:53:56.206Z,18.50
2022-10-15T02:58:58.958Z,15.57
2022-10-15T03:04:03.732Z,17.13
2022-10-15T03:09:06.768Z,16.70
2022-10-15T03:14:09.558Z,17.77
2022-10-15T03:19:13.734Z,16.65
2022-10-15T03:24:16.515Z,14.70
2022-10-15T03:29:19.273Z,18.52
2022-10-15T03:34:23.376Z,14.70
2022-10-15T03:39:26.189Z,19.38
2022-10-15T03:44:29.032Z,16.45
2022-10-15T03:49:33.231Z,16.10
2022-10-15T03:54:35.973Z,19.60
2022-10-15T03:59:39.122Z,17.42
2022-10-15T04:04:43.301Z,18.73
2022-10-15T04:09:46.065Z,17.88
2022-10-15T04:14:48.850Z,15.57
2022-10-15T04:19:52.966Z,17.70
2022-10-15T04:24:55.763Z,19.25
2022-10-15T04:29:58.500Z,15.90
2022-10-15T04:35:02.584Z,14.32
2022-10-15T04:40:06.275Z,17.38
2022-10-15T04:45:10.128Z,17.65
2022-10-15T04:50:14.327Z,17.63
2022-10-15T04:55:17.200Z,14.63
2022-10-15T05:00:20.012Z,17.05
2022-10-15T05:05:24.165Z,16.30
2022-10-15T05:10:26.929Z,17.55
2022-10-15T05:15:29.742Z,16.67
2022-10-15T05:20:33.829Z,17.33
2022-10-15T05:25:36.625Z,14.55
2022-10-15T05:30:39.395Z,14.65
2022-10-15T05:35:43.482Z,18.20
2022-10-15T05:40:49.499Z,14.20
2022-10-15T05:45:55.057Z,14.52
2022-10-15T05:51:03.320Z,11.90
2022-10-15T05:56:06.531Z,14.98
2022-10-15T06:01:11.465Z,12.18
2022-10-15T06:06:18.097Z,11.23
2022-10-15T06:11:21.388Z,11.23
2022-10-15T06:16:24.396Z,10.57
2022-10-15T06:21:28.560Z,11.57
2022-10-15T06:26:31.313Z,10.40
2022-10-15T06:31:34.178Z,10.48
2022-10-15T06:36:38.963Z,11.90
2022-10-15T06:41:41.767Z,10.77
2022-10-15T06:46:44.550Z,9.07
2022-10-15T06:51:48.672Z,7.22
2022-10-15T06:56:51.662Z,10.95
2022-10-15T07:01:54.409Z,7.63
2022-10-15T07:06:58.511Z,6.72
2022-10-15T07:12:01.265Z,6.40
2022-10-15T07:17:04.008Z,8.32
2022-10-15T07:22:08.096Z,6.43
2022-10-15T07:27:18.711Z,5.85
2022-10-15T07:32:22.294Z,6.65
2022-10-15T07:37:26.745Z,4.72
2022-10-15T07:42:29.542Z,11.18
2022-10-15T07:47:32.383Z,5.68
2022-10-15T07:52:36.475Z,3.50
2022-10-15T07:57:39.296Z,11.70
2022-10-15T08:02:42.095Z,4.40
2022-10-15T08:07:46.275Z,7.18
2022-10-15T08:12:49.175Z,3.70
2022-10-15T08:17:52.004Z,2.50
2022-10-15T08:22:56.125Z,3.38
2022-10-15T08:27:59.218Z,3.15
2022-10-15T08:33:02.065Z,3.63
2022-10-15T08:38:06.572Z,2.40
2022-10-15T08:43:18.657Z,4.28
2022-10-15T08:48:35.101Z,5.68
2022-10-15T08:53:43.559Z,2.13
2022-10-15T08:58:54.639Z,5.25
2022-10-15T09:04:08.006Z,2.20
2022-10-15T09:09:20.801Z,2.10
2022-10-15T09:14:28.562Z,1.83
2022-10-15T09:19:33.092Z,2.25
2022-10-15T09:24:37.616Z,1.92
2022-10-15T09:29:47.243Z,1.92
2022-10-15T09:34:56.533Z,2.53
2022-10-15T09:40:28.376Z,2.72
2022-10-15T09:45:31.168Z,2.22
2022-10-15T09:50:41.748Z,5.03
2022-10-15T09:55:51.321Z,5.82
2022-10-15T10:01:05.407Z,2.65
2022-10-15T10:06:10.362Z,2.33
2022-10-15T10:11:14.797Z,3.22
2022-10-15T10:16:20.281Z,2.78
2022-10-15T10:21:26.520Z,2.83
2022-10-15T10:26:36.557Z,3.97
2022-10-15T10:31:42.962Z,2.38
2022-10-15T10:36:51.124Z,1.70
2022-10-15T10:41:56.959Z,6.63
2022-10-15T10:47:11.915Z,3.50
2022-10-15T10:52:27.269Z,2.08
2022-10-15T10:57:42.502Z,2.83
2022-10-15T11:02:45.282Z,2.63
2022-10-15T11:07:52.919Z,2.13
2022-10-15T11:18:31.554Z,2.25
2022-10-15T11:23:49.131Z,2.58
2022-10-15T11:29:06.753Z,2.15
2022-10-15T11:34:26.495Z,2.17
2022-10-15T11:39:44.038Z,1.80
2022-10-15T11:45:17.226Z,1.70
2022-10-15T11:50:28.940Z,2.45
2022-10-15T11:55:39.786Z,2.50
2022-10-15T12:00:48.055Z,2.67
2022-10-15T12:05:53.943Z,2.25
2022-10-15T12:11:08.996Z,1.80
2022-10-15T12:16:22.317Z,2.35
2022-10-15T12:21:33.947Z,3.35
2022-10-15T12:26:36.960Z,1.92
2022-10-15T12:31:50.134Z,2.08
2022-10-15T12:37:01.776Z,2.03
2022-10-15T12:42:04.965Z,1.70
2022-10-15T12:47:12.111Z,3.10
2022-10-15T12:52:56.791Z,3.25
2022-10-15T12:58:02.776Z,2.72
2022-10-15T13:03:28.618Z,3.65
2022-10-15T13:08:31.820Z,2.08
2022-10-15T13:13:36.480Z,1.90
2022-10-15T13:18:44.110Z,2.00
2022-10-15T13:23:48.484Z,2.58
2022-10-15T13:28:52.823Z,2.75
2022-10-15T13:34:01.008Z,3.42
2022-10-15T13:39:07.113Z,1.58
2022-10-15T13:44:21.707Z,1.40
2022-10-15T13:49:28.752Z,1.58
2022-10-15T13:54:32.196Z,1.63
2022-10-15T13:59:35.166Z,2.78
2022-10-15T14:04:49.408Z,2.40
2022-10-15T14:10:07.597Z,2.53
2022-10-15T14:15:45.155Z,1.98
2022-10-15T14:20:50.318Z,2.10
2022-10-15T14:25:58.442Z,3.67
2022-10-15T14:31:27.383Z,5.30
2022-10-15T14:36:42.001Z,7.47
2022-10-15T14:41:56.646Z,4.80
2022-10-15T14:47:02.868Z,4.57
2022-10-15T14:52:20.499Z,3.70
2022-10-15T14:57:26.170Z,4.43
2022-10-15T15:02:30.279Z,3.00
2022-10-15T15:07:34.380Z,4.70
2022-10-15T15:12:40.989Z,4.53
2022-10-15T15:17:44.938Z,5.28
2022-10-15T15:22:50.665Z,5.07
2022-10-15T15:27:53.445Z,5.10
2022-10-15T15:32:56.227Z,3.80
2022-10-15T15:38:01.368Z,4.65
2022-10-15T15:43:07.451Z,7.22
2022-10-15T15:48:12.837Z,4.40
2022-10-15T15:53:19.139Z,7.63
2022-10-15T15:58:26.540Z,6.40
2022-10-15T16:03:40.974Z,9.60
2022-10-15T16:08:45.090Z,6.85
2022-10-15T16:14:09.296Z,8.13
2022-10-15T16:19:14.477Z,7.78
2022-10-15T16:24:18.690Z,7.45
2022-10-15T16:29:21.461Z,10.30
2022-10-15T16:34:25.687Z,8.18
2022-10-15T16:39:29.780Z,11.35
2022-10-15T16:44:32.560Z,10.93
2022-10-15T16:49:36.375Z,11.55
2022-10-15T16:54:41.107Z,11.05
2022-10-15T16:59:44.039Z,11.98
2022-10-15T17:04:50.971Z,10.93
2022-10-15T17:09:58.796Z,8.48
2022-10-15T17:15:01.646Z,12.25
2022-10-15T17:20:05.735Z,10.63
2022-10-15T17:25:10.650Z,12.40
2022-10-15T17:30:13.605Z,13.65
2022-10-15T17:35:16.801Z,13.50
2022-10-15T17:40:21.051Z,16.70
2022-10-15T17:45:24.407Z,16.75
2022-10-15T17:50:35.406Z,28.77
2022-10-15T17:55:39.628Z,26.98
2022-10-15T18:00:42.551Z,16.50
2022-10-15T18:05:46.168Z,17.00
2022-10-15T18:10:53.934Z,15.02
2022-10-15T18:16:00.187Z,16.52
2022-10-15T18:21:03.654Z,15.38
2022-10-15T18:26:12.932Z,12.00
2022-10-15T18:31:18.057Z,17.05
2022-10-15T18:36:23.121Z,14.30
2022-10-15T18:41:29.452Z,11.93
2022-10-15T18:46:33.846Z,10.73
2022-10-15T18:51:39.956Z,12.02
2022-10-15T18:56:45.238Z,12.57
2022-10-15T19:02:01.256Z,14.90
2022-10-15T19:07:04.559Z,12.70
2022-10-15T19:12:08.717Z,12.35
2022-10-15T19:17:13.307Z,11.70
2022-10-15T19:22:17.498Z,13.27
2022-10-15T19:27:21.886Z,15.70
2022-10-15T19:32:25.938Z,14.48
2022-10-15T19:37:28.954Z,15.55
2022-10-15T19:42:50.773Z,15.13
2022-10-15T19:48:01.447Z,16.42
2022-10-15T19:53:19.778Z,21.13
2022-10-15T19:58:25.022Z,16.23
2022-10-15T20:03:29.661Z,16.30
2022-10-15T20:08:32.712Z,19.15
2022-10-15T20:13:37.465Z,19.50
2022-10-15T20:18:40.409Z,24.67
2022-10-15T20:23:44.568Z,21.58
2022-10-15T20:28:48.704Z,21.30
2022-10-15T20:33:51.515Z,20.75
2022-10-15T20:38:55.552Z,21.63
2022-10-15T20:43:59.844Z,21.33
2022-10-15T20:49:08.922Z,22.52
2022-10-15T20:54:13.837Z,21.90
2022-10-15T20:59:18.143Z,20.30
2022-10-15T21:04:20.989Z,19.88
2022-10-15T21:09:24.101Z,18.40
2022-10-15T21:14:28.230Z,18.92
2022-10-15T21:19:31.424Z,16.42
2022-10-15T21:24:35.210Z,17.48
2022-10-15T21:29:39.508Z,16.35
2022-10-15T21:34:42.269Z,14.57
2022-10-15T21:39:45.046Z,17.23
2022-10-15T21:44:49.158Z,15.32
2022-10-15T21:49:51.940Z,14.45
2022-10-15T21:54:55.265Z,17.27
2022-10-15T21:59:59.494Z,18.17
2022-10-15T22:05:02.240Z,18.60
2022-10-15T22:10:05.657Z,18.67
2022-10-15T22:15:10.735Z,19.25
2022-10-15T22:20:13.544Z,13.43
2022-10-15T22:25:16.507Z,16.08
2022-10-15T22:30:20.615Z,18.17
2022-10-15T22:35:23.427Z,14.80
2022-10-15T22:40:26.341Z,18.13
2022-10-15T22:45:31.514Z,17.23
2022-10-15T22:50:34.304Z,16.52
2022-10-15T22:55:37.049Z,15.30
2022-10-15T23:00:41.644Z,15.82
2022-10-15T23:05:44.413Z,17.27
2022-10-15T23:10:47.290Z,19.92
2022-10-15T23:15:51.363Z,17.90
2022-10-15T23:20:54.742Z,15.88
2022-10-15T23:25:57.479Z,16.17
2022-10-15T23:31:01.641Z,17.15
2022-10-15T23:36:05.855Z,16.17
2022-10-15T23:41:09.927Z,16.35
2022-10-15T23:46:14.032Z,18.48
2022-10-15T23:51:20.581Z,14.82
2022-10-15T23:56:23.998Z,16.58
